createdAt,value
2019-03-25T00:00:36.112Z,99.90
2019-03-25T00:03:23.997Z,99.90
2019-03-25T00:06:11.692Z,99.90
2019-03-25T00:09:05.290Z,99.90
2019-03-25T00:11:48.570Z,99.90
2019-03-25T00:14:35.972Z,99.90
2019-03-25T00:17:23.725Z,99.90
2019-03-25T00:20:11.289Z,99.90
2019-03-25T00:22:58.728Z,99.90
2019-03-25T00:25:46.458Z,99.90
2019-03-25T00:28:34.057Z,99.90
2019-03-25T00:31:21.640Z,99.90
2019-03-25T00:34:09.404Z,99.90
2019-03-25T00:36:57.262Z,99.90
2019-03-25T00:39:44.960Z,99.90
2019-03-25T00:42:32.344Z,99.90
2019-03-25T00:45:19.732Z,99.90
2019-03-25T00:48:07.300Z,99.90
2019-03-25T00:50:54.676Z,99.90
2019-03-25T00:53:42.105Z,99.90
2019-03-25T00:56:29.691Z,99.90
2019-03-25T00:59:17.336Z,99.90
2019-03-25T01:02:04.908Z,99.90
2019-03-25T01:04:52.284Z,99.90
2019-03-25T01:07:39.836Z,99.90
2019-03-25T01:10:27.519Z,99.90
2019-03-25T01:13:15.145Z,99.90
2019-03-25T01:16:02.842Z,99.90
2019-03-25T01:18:50.576Z,99.90
2019-03-25T01:21:38.186Z,99.90
2019-03-25T01:24:25.737Z,99.90
2019-03-25T01:27:13.337Z,99.90
2019-03-25T01:30:00.985Z,99.90
2019-03-25T01:32:48.985Z,99.90
2019-03-25T01:35:36.583Z,99.90
2019-03-25T01:38:24.341Z,99.90
2019-03-25T01:41:11.945Z,99.90
2019-03-25T01:43:59.579Z,99.90
2019-03-25T01:46:47.280Z,99.90
2019-03-25T01:49:35.006Z,99.90
2019-03-25T01:52:22.636Z,99.90
2019-03-25T01:55:13.765Z,99.90
2019-03-25T01:57:59.594Z,99.90
2019-03-25T02:00:47.374Z,99.90
2019-03-25T02:03:35.064Z,99.90
2019-03-25T02:06:22.718Z,99.90
2019-03-25T02:09:10.069Z,99.90
2019-03-25T02:11:57.668Z,99.90
2019-03-25T02:14:45.114Z,99.90
2019-03-25T02:17:32.780Z,99.90
2019-03-25T02:20:26.259Z,99.90
2019-03-25T02:23:10.048Z,99.90
2019-03-25T02:25:57.856Z,99.90
2019-03-25T02:28:45.381Z,99.90
2019-03-25T02:31:33.213Z,99.90
2019-03-25T02:34:20.865Z,99.90
2019-03-25T02:37:08.397Z,99.90
2019-03-25T02:39:56.080Z,99.90
2019-03-25T02:42:43.872Z,99.90
2019-03-25T02:45:31.426Z,99.90
2019-03-25T02:48:18.805Z,99.90
2019-03-25T02:51:06.421Z,99.90
2019-03-25T02:53:53.933Z,99.90
2019-03-25T02:56:41.595Z,99.90
2019-03-25T02:59:29.197Z,99.90
2019-03-25T03:02:16.802Z,99.90
2019-03-25T03:05:05.562Z,99.90
2019-03-25T03:07:53.047Z,99.90
2019-03-25T03:10:40.635Z,99.90
2019-03-25T03:13:28.310Z,99.90
2019-03-25T03:16:15.707Z,99.90
2019-03-25T03:19:03.383Z,99.90
2019-03-25T03:21:51.038Z,99.90
2019-03-25T03:24:38.966Z,99.90
2019-03-25T03:27:29.772Z,99.90
2019-03-25T03:30:15.445Z,99.90
2019-03-25T03:33:03.251Z,99.90
2019-03-25T03:35:50.910Z,99.90
2019-03-25T03:38:38.361Z,99.90
2019-03-25T03:41:26.013Z,99.90
2019-03-25T03:44:13.756Z,99.90
2019-03-25T03:47:01.232Z,99.90
2019-03-25T03:49:48.681Z,99.90
2019-03-25T03:52:36.625Z,99.90
2019-03-25T03:55:24.416Z,99.90
2019-03-25T03:58:12.003Z,99.90
2019-03-25T04:00:59.631Z,99.90
2019-03-25T04:03:47.074Z,99.90
2019-03-25T04:06:34.825Z,99.90
2019-03-25T04:09:22.467Z,99.90
2019-03-25T04:12:10.155Z,99.90
2019-03-25T04:14:57.810Z,99.90
2019-03-25T04:17:45.554Z,99.90
2019-03-25T04:20:32.986Z,99.90
2019-03-25T04:23:20.656Z,99.90
2019-03-25T04:26:08.319Z,99.90
2019-03-25T04:28:56.017Z,99.90
2019-03-25T04:31:43.738Z,99.90
2019-03-25T04:34:31.311Z,99.90
2019-03-25T04:37:19.178Z,99.90
2019-03-25T04:40:09.869Z,99.90
2019-03-25T04:42:57.531Z,99.90
2019-03-25T04:45:45.109Z,99.90
2019-03-25T04:48:32.589Z,99.90
2019-03-25T04:51:20.270Z,99.90
2019-03-25T04:54:08.018Z,99.90
2019-03-25T04:56:55.571Z,99.90
2019-03-25T04:59:43.209Z,99.90
2019-03-25T05:02:30.891Z,99.90
2019-03-25T05:05:18.521Z,99.90
2019-03-25T05:08:06.224Z,99.90
2019-03-25T05:10:54.028Z,99.90
2019-03-25T05:13:41.654Z,99.90
2019-03-25T05:16:29.233Z,99.90
2019-03-25T05:19:16.969Z,99.90
2019-03-25T05:22:04.741Z,99.90
2019-03-25T05:24:52.424Z,99.90
2019-03-25T05:27:39.889Z,99.90
2019-03-25T05:30:27.567Z,99.90
2019-03-25T05:33:15.021Z,99.90
2019-03-25T05:36:02.673Z,99.90
2019-03-25T05:38:50.097Z,99.90
2019-03-25T05:41:37.928Z,99.90
2019-03-25T05:44:25.559Z,99.90
2019-03-25T05:47:13.236Z,99.90
2019-03-25T05:50:00.702Z,99.90
2019-03-25T05:52:48.428Z,99.90
2019-03-25T05:55:36.137Z,99.90
2019-03-25T05:58:23.505Z,99.90
2019-03-25T06:01:11.317Z,99.90
2019-03-25T06:03:59.050Z,99.90
2019-03-25T06:06:46.453Z,99.90
2019-03-25T06:09:33.911Z,99.90
2019-03-25T06:12:21.614Z,99.90
2019-03-25T06:15:09.602Z,99.90
2019-03-25T06:17:57.176Z,99.90
2019-03-25T06:20:44.884Z,99.90
2019-03-25T06:23:32.610Z,99.90
2019-03-25T06:26:20.316Z,99.90
2019-03-25T06:29:07.817Z,99.90
2019-03-25T06:31:55.582Z,99.90
2019-03-25T06:34:43.345Z,99.90
2019-03-25T06:37:30.801Z,99.90
2019-03-25T06:40:18.430Z,99.90
2019-03-25T06:43:06.110Z,99.90
2019-03-25T06:45:53.688Z,99.90
2019-03-25T06:48:41.381Z,99.90
2019-03-25T06:51:28.969Z,99.90
2019-03-25T06:54:16.718Z,99.90
2019-03-25T06:57:04.320Z,99.90
2019-03-25T06:59:58.797Z,99.90
2019-03-25T07:02:46.806Z,99.90
2019-03-25T07:05:34.805Z,99.90
2019-03-25T07:08:22.718Z,99.90
2019-03-25T07:11:11.053Z,99.90
2019-03-25T07:13:59.029Z,99.90
2019-03-25T07:16:46.748Z,99.90
2019-03-25T07:19:34.565Z,99.90
2019-03-25T07:22:22.345Z,99.90
2019-03-25T07:25:10.194Z,99.90
2019-03-25T07:27:58.049Z,99.90
2019-03-25T07:30:45.748Z,99.90
2019-03-25T07:33:33.757Z,99.90
2019-03-25T07:36:21.433Z,99.90
2019-03-25T07:39:09.391Z,99.90
2019-03-25T07:41:57.306Z,99.90
2019-03-25T07:44:45.238Z,99.90
2019-03-25T07:50:20.490Z,99.90
2019-03-25T07:53:08.269Z,99.90
2019-03-25T07:55:56.031Z,99.90
2019-03-25T07:58:43.638Z,99.90
2019-03-25T08:01:31.324Z,99.50
2019-03-25T08:04:19.360Z,99.90
2019-03-25T08:07:07.057Z,99.00
2019-03-25T08:09:54.913Z,99.30
2019-03-25T08:12:43.000Z,99.20
2019-03-25T08:15:31.046Z,99.40
2019-03-25T08:18:18.612Z,99.30
2019-03-25T08:21:06.589Z,99.90
2019-03-25T08:23:54.641Z,99.80
2019-03-25T08:26:43.054Z,99.40
2019-03-25T08:29:30.948Z,99.70
2019-03-25T08:32:18.856Z,99.90
2019-03-25T08:35:07.257Z,99.70
2019-03-25T08:37:54.943Z,99.90
2019-03-25T08:40:42.779Z,99.90
2019-03-25T08:43:30.597Z,99.90
2019-03-25T08:46:18.342Z,99.90
2019-03-25T08:49:06.344Z,99.60
2019-03-25T08:51:54.181Z,99.90
2019-03-25T08:54:41.873Z,99.90
2019-03-25T08:57:29.770Z,99.90
2019-03-25T09:00:18.696Z,99.90
2019-03-25T09:03:06.283Z,99.90
2019-03-25T09:05:54.245Z,99.90
2019-03-25T09:08:42.256Z,99.90
2019-03-25T09:11:30.379Z,99.90
2019-03-25T09:14:18.301Z,99.90
2019-03-25T09:17:06.430Z,99.00
2019-03-25T09:19:54.097Z,98.30
2019-03-25T09:22:42.803Z,98.70
2019-03-25T09:25:30.465Z,99.90
2019-03-25T09:28:24.153Z,99.00
2019-03-25T09:31:10.920Z,99.60
2019-03-25T09:33:58.777Z,99.90
2019-03-25T09:36:46.450Z,99.90
2019-03-25T09:39:34.258Z,99.90
2019-03-25T09:42:22.197Z,99.50
2019-03-25T09:45:11.742Z,99.60
2019-03-25T09:47:59.669Z,98.60
2019-03-25T09:50:47.817Z,99.50
2019-03-25T09:53:35.345Z,99.40
2019-03-25T09:56:23.321Z,99.50
2019-03-25T09:59:11.244Z,98.80
2019-03-25T10:01:58.975Z,99.10
2019-03-25T10:04:46.586Z,98.90
2019-03-25T10:07:34.537Z,98.90
2019-03-25T10:10:22.636Z,98.10
2019-03-25T10:13:10.674Z,98.10
2019-03-25T10:15:58.521Z,97.40
2019-03-25T10:18:46.587Z,98.20
2019-03-25T10:21:34.718Z,98.60
2019-03-25T10:24:27.820Z,98.20
2019-03-25T10:27:12.430Z,98.20
2019-03-25T10:30:00.361Z,98.30
2019-03-25T10:32:48.274Z,98.80
2019-03-25T10:35:36.240Z,99.90
2019-03-25T10:38:23.933Z,99.90
2019-03-25T10:41:11.896Z,99.70
2019-03-25T10:43:59.851Z,98.10
2019-03-25T10:46:48.049Z,93.70
2019-03-25T10:49:35.984Z,93.60
2019-03-25T10:52:23.933Z,92.10
2019-03-25T10:55:11.696Z,92.70
2019-03-25T10:57:59.526Z,91.30
2019-03-25T11:00:47.433Z,92.10
2019-03-25T11:03:35.332Z,92.70
2019-03-25T11:06:23.219Z,92.60
2019-03-25T11:09:11.336Z,85.90
2019-03-25T11:11:59.219Z,86.80
2019-03-25T11:14:47.189Z,87.60
2019-03-25T11:17:35.162Z,85.50
2019-03-25T11:20:23.179Z,86.00
2019-03-25T11:23:10.893Z,85.50
2019-03-25T11:25:58.553Z,87.90
2019-03-25T11:31:36.908Z,85.70
2019-03-25T11:34:24.519Z,85.00
2019-03-25T11:37:12.246Z,83.50
2019-03-25T11:40:00.064Z,84.40
2019-03-25T11:42:48.106Z,86.20
2019-03-25T11:45:35.889Z,84.20
2019-03-25T11:48:23.768Z,81.50
2019-03-25T11:51:11.622Z,78.60
2019-03-25T11:53:59.445Z,74.20
2019-03-25T11:56:47.029Z,76.00
2019-03-25T11:59:34.829Z,75.10
2019-03-25T12:02:22.434Z,82.60
2019-03-25T12:05:10.420Z,99.50
2019-03-25T12:07:58.300Z,99.90
2019-03-25T12:10:46.233Z,99.90
2019-03-25T12:13:33.927Z,99.90
2019-03-25T12:16:21.985Z,99.90
2019-03-25T12:19:09.584Z,99.90
2019-03-25T12:21:57.235Z,99.90
2019-03-25T12:24:45.197Z,99.90
2019-03-25T12:27:33.069Z,99.00
2019-03-25T12:30:21.041Z,99.90
2019-03-25T12:33:08.906Z,99.90
2019-03-25T12:35:56.609Z,99.90
2019-03-25T12:38:44.268Z,99.90
2019-03-25T12:41:32.083Z,99.90
2019-03-25T12:44:20.057Z,99.90
2019-03-25T12:47:08.105Z,99.90
2019-03-25T12:49:55.722Z,99.90
2019-03-25T12:52:43.687Z,99.90
2019-03-25T12:55:31.264Z,99.90
2019-03-25T12:58:19.301Z,99.90
2019-03-25T13:01:07.170Z,99.90
2019-03-25T13:03:54.755Z,99.90
2019-03-25T13:06:42.736Z,99.90
2019-03-25T13:09:30.853Z,99.90
2019-03-25T13:12:18.761Z,99.90
2019-03-25T13:15:07.688Z,99.90
2019-03-25T13:17:55.594Z,99.90
2019-03-25T13:20:43.330Z,99.90
2019-03-25T13:23:30.933Z,99.90
2019-03-25T13:26:18.881Z,99.90
2019-03-25T13:29:06.787Z,99.90
2019-03-25T13:31:54.686Z,99.90
2019-03-25T13:34:42.245Z,97.10
2019-03-25T13:37:30.045Z,83.30
2019-03-25T13:40:17.777Z,79.50
2019-03-25T13:43:05.996Z,80.10
2019-03-25T13:45:53.622Z,78.00
2019-03-25T13:48:41.401Z,73.30
2019-03-25T13:51:29.375Z,77.00
2019-03-25T13:54:17.179Z,80.70
2019-03-25T13:57:04.853Z,99.80
2019-03-25T14:00:02.694Z,99.90
2019-03-25T14:02:42.741Z,99.90
2019-03-25T14:05:30.735Z,99.90
2019-03-25T14:08:18.599Z,99.90
2019-03-25T14:11:06.509Z,99.90
2019-03-25T14:13:54.248Z,99.90
2019-03-25T14:16:42.281Z,99.90
2019-03-25T14:19:30.109Z,99.90
2019-03-25T14:22:17.953Z,99.90
2019-03-25T14:25:06.933Z,99.90
2019-03-25T14:27:54.983Z,99.90
2019-03-25T14:30:42.857Z,99.90
2019-03-25T14:33:30.694Z,99.90
2019-03-25T14:36:18.444Z,99.90
2019-03-25T14:39:07.119Z,99.90
2019-03-25T14:41:55.191Z,99.90
2019-03-25T14:44:43.021Z,99.90
2019-03-25T14:47:30.717Z,99.90
2019-03-25T14:50:18.887Z,99.90
2019-03-25T14:53:06.557Z,99.90
2019-03-25T14:55:54.209Z,99.90
2019-03-25T14:58:42.033Z,99.90
2019-03-25T15:01:30.018Z,99.90
2019-03-25T15:04:17.577Z,99.90
2019-03-25T15:07:05.330Z,99.90
2019-03-25T15:09:52.923Z,99.90
2019-03-25T15:12:40.809Z,99.90
2019-03-25T15:15:28.645Z,99.90
2019-03-25T15:18:16.592Z,99.90
2019-03-25T15:21:04.229Z,99.90
2019-03-25T15:23:52.088Z,99.90
2019-03-25T15:26:39.814Z,99.90
2019-03-25T15:29:27.740Z,99.90
2019-03-25T15:32:15.585Z,99.90
2019-03-25T15:35:05.670Z,99.90
2019-03-25T15:37:53.466Z,99.90
2019-03-25T15:40:41.317Z,99.90
2019-03-25T15:43:29.297Z,99.90
2019-03-25T15:46:17.354Z,99.90
2019-03-25T15:49:05.516Z,99.90
2019-03-25T15:51:53.111Z,99.90
2019-03-25T15:54:40.965Z,99.90
2019-03-25T15:57:28.911Z,99.00
2019-03-25T16:00:19.568Z,96.50
2019-03-25T16:03:07.323Z,95.40
2019-03-25T16:05:55.193Z,94.60
2019-03-25T16:08:43.218Z,94.90
2019-03-25T16:11:31.349Z,95.40
2019-03-25T16:14:18.878Z,98.30
2019-03-25T16:17:06.606Z,99.90
2019-03-25T16:19:54.535Z,99.90
2019-03-25T16:22:42.300Z,99.90
2019-03-25T16:25:30.247Z,99.90
2019-03-25T16:28:17.889Z,99.90
2019-03-25T16:31:05.901Z,99.90
2019-03-25T16:33:54.142Z,99.90
2019-03-25T16:36:41.993Z,99.90
2019-03-25T16:39:29.695Z,99.90
2019-03-25T16:42:17.917Z,99.90
2019-03-25T16:45:05.770Z,99.90
2019-03-25T16:47:53.621Z,99.90
2019-03-25T16:50:41.629Z,99.90
2019-03-25T16:53:29.378Z,99.90
2019-03-25T16:56:17.489Z,99.90
2019-03-25T17:02:54.077Z,99.90
2019-03-25T17:05:42.530Z,99.90
2019-03-25T17:08:30.637Z,99.90
2019-03-25T17:11:18.418Z,99.90
2019-03-25T17:14:09.081Z,99.90
2019-03-25T17:16:57.161Z,99.90
2019-03-25T17:19:45.196Z,99.90
2019-03-25T17:22:32.929Z,99.90
2019-03-25T17:25:20.825Z,99.90
2019-03-25T17:28:08.505Z,99.90
2019-03-25T17:30:56.230Z,99.90
2019-03-25T17:33:43.767Z,99.90
2019-03-25T17:36:31.680Z,99.90
2019-03-25T17:39:19.665Z,99.90
2019-03-25T17:42:07.611Z,99.90
2019-03-25T17:44:55.515Z,99.90
2019-03-25T17:47:43.378Z,99.90
2019-03-25T17:50:31.308Z,99.90
2019-03-25T17:53:19.032Z,99.90
2019-03-25T17:56:06.857Z,99.90
2019-03-25T17:58:54.917Z,99.90
2019-03-25T18:01:42.896Z,99.90
2019-03-25T18:04:30.606Z,99.90
2019-03-25T18:07:18.407Z,99.90
2019-03-25T18:10:09.993Z,99.90
2019-03-25T18:12:58.209Z,99.90
2019-03-25T18:15:46.096Z,99.90
2019-03-25T18:18:34.060Z,99.90
2019-03-25T18:21:21.987Z,99.90
2019-03-25T18:24:09.513Z,99.90
2019-03-25T18:26:57.120Z,99.90
2019-03-25T18:29:45.021Z,99.90
2019-03-25T18:32:32.758Z,99.90
2019-03-25T18:35:24.065Z,99.90
2019-03-25T18:38:11.957Z,99.90
2019-03-25T18:40:59.987Z,99.90
2019-03-25T18:43:47.857Z,99.90
2019-03-25T18:46:35.703Z,99.90
2019-03-25T18:49:23.482Z,99.90
2019-03-25T18:52:11.489Z,99.90
2019-03-25T18:54:59.106Z,99.90
2019-03-25T18:57:46.921Z,99.90
2019-03-25T19:00:35.691Z,99.90
2019-03-25T19:03:23.853Z,99.90
2019-03-25T19:06:11.829Z,99.90
2019-03-25T19:11:46.910Z,99.90
2019-03-25T19:14:34.841Z,99.90
2019-03-25T19:17:22.797Z,99.90
2019-03-25T19:20:10.759Z,99.90
2019-03-25T19:22:58.471Z,99.90
2019-03-25T19:25:46.421Z,99.90
2019-03-25T19:28:34.303Z,99.90
2019-03-25T19:31:22.079Z,99.90
2019-03-25T19:34:09.954Z,99.90
2019-03-25T19:36:58.051Z,99.90
2019-03-25T19:39:45.985Z,99.90
2019-03-25T19:42:33.769Z,99.90
2019-03-25T19:45:21.617Z,99.90
2019-03-25T19:48:09.674Z,99.90
2019-03-25T19:50:57.682Z,99.90
2019-03-25T19:53:45.445Z,99.90
2019-03-25T19:56:33.529Z,99.90
2019-03-25T19:59:21.649Z,99.90
2019-03-25T20:02:18.362Z,99.90
2019-03-25T20:04:58.865Z,99.90
2019-03-25T20:07:46.937Z,99.90
2019-03-25T20:10:36.461Z,99.90
2019-03-25T20:13:24.454Z,99.90
2019-03-25T20:16:12.529Z,99.90
2019-03-25T20:19:00.524Z,99.90
2019-03-25T20:21:48.349Z,99.90
2019-03-25T20:24:36.290Z,99.90
2019-03-25T20:27:23.926Z,99.90
2019-03-25T20:30:12.617Z,99.90
2019-03-25T20:33:00.062Z,99.90
2019-03-25T20:35:47.780Z,99.90
2019-03-25T20:38:35.700Z,99.90
2019-03-25T20:41:23.653Z,99.90
2019-03-25T20:44:11.757Z,99.90
2019-03-25T20:46:59.829Z,99.90
2019-03-25T20:49:47.860Z,99.90
2019-03-25T20:52:35.949Z,99.90
2019-03-25T20:55:23.853Z,99.90
2019-03-25T20:58:11.786Z,99.90
2019-03-25T21:00:59.610Z,99.90
2019-03-25T21:03:47.391Z,99.90
2019-03-25T21:06:35.120Z,99.90
2019-03-25T21:09:22.933Z,99.90
2019-03-25T21:12:10.666Z,99.90
2019-03-25T21:14:58.660Z,99.90
2019-03-25T21:17:46.504Z,99.90
2019-03-25T21:20:34.245Z,99.90
2019-03-25T21:23:21.909Z,99.90
2019-03-25T21:26:11.143Z,99.90
2019-03-25T21:28:59.089Z,99.90
2019-03-25T21:34:34.348Z,99.90
2019-03-25T21:37:22.165Z,99.90
2019-03-25T21:40:10.153Z,99.90
2019-03-25T21:42:58.119Z,99.90
2019-03-25T21:45:45.746Z,99.90
2019-03-25T21:48:33.447Z,99.90
2019-03-25T21:51:21.656Z,99.90
2019-03-25T21:54:09.299Z,99.90
2019-03-25T21:56:56.975Z,99.90
2019-03-25T21:59:44.930Z,99.90
2019-03-25T22:02:32.752Z,99.90
2019-03-25T22:05:20.582Z,99.90
2019-03-25T22:08:08.631Z,99.90
2019-03-25T22:10:56.237Z,99.90
2019-03-25T22:13:44.329Z,99.90
2019-03-25T22:16:32.033Z,99.90
2019-03-25T22:19:19.725Z,99.90
2019-03-25T22:22:07.435Z,99.90
2019-03-25T22:24:55.352Z,99.90
2019-03-25T22:27:43.197Z,99.90
2019-03-25T22:30:30.954Z,99.90
2019-03-25T22:33:25.606Z,99.90
2019-03-25T22:36:08.381Z,99.90
2019-03-25T22:38:56.185Z,99.90
2019-03-25T22:41:43.873Z,99.90
2019-03-25T22:44:31.842Z,99.90
2019-03-25T22:47:19.568Z,99.90
2019-03-25T22:50:08.285Z,99.90
2019-03-25T22:52:56.625Z,99.90
2019-03-25T22:55:44.197Z,99.90
2019-03-25T22:58:32.059Z,99.90
2019-03-25T23:01:19.803Z,99.90
2019-03-25T23:04:07.625Z,99.90
2019-03-25T23:06:55.281Z,99.90
2019-03-25T23:09:42.998Z,99.90
2019-03-25T23:12:30.899Z,99.90
2019-03-25T23:15:18.575Z,99.90
2019-03-25T23:18:06.675Z,99.90
2019-03-25T23:20:54.477Z,99.90
2019-03-25T23:23:42.393Z,99.90
2019-03-25T23:26:30.328Z,99.90
2019-03-25T23:29:18.401Z,99.90
2019-03-25T23:32:06.181Z,99.90
2019-03-25T23:34:54.109Z,99.90
2019-03-25T23:37:41.937Z,99.90
2019-03-25T23:40:29.937Z,99.90
2019-03-25T23:43:17.957Z,99.90
2019-03-25T23:46:05.796Z,99.90
2019-03-25T23:48:53.854Z,99.90
2019-03-25T23:51:41.429Z,99.90
2019-03-25T23:54:29.169Z,99.90
2019-03-25T23:57:17.006Z,99.90
